sensor_id;sensor_type;location;lat;lon;timestamp;P1;durP1;ratioP1;P2;durP2;ratioP2
77524;SDS011;66638;50.050;21.124;2024-03-23T00:55:22;20.30;;;13.30;;
77524;SDS011;66638;50.050;21.124;2024-03-23T01:00:57;19.60;;;12.80;;
77524;SDS011;66638;50.050;21.124;2024-03-23T01:03:44;20.50;;;12.40;;
77524;SDS011;66638;50.050;21.124;2024-03-23T01:06:31;20.90;;;12.30;;
77524;SDS011;66638;50.050;21.124;2024-03-23T01:09:18;20.00;;;13.10;;
77524;SDS011;66638;50.050;21.124;2024-03-23T01:12:05;19.60;;;12.80;;
77524;SDS011;66638;50.050;21.124;2024-03-23T01:17:39;19.20;;;12.70;;
77524;SDS011;66638;50.050;21.124;2024-03-23T01:20:27;21.40;;;13.80;;
77524;SDS011;66638;50.050;21.124;2024-03-23T01:23:14;21.40;;;13.20;;
77524;SDS011;66638;50.050;21.124;2024-03-23T01:26:01;20.60;;;13.00;;
77524;SDS011;66638;50.050;21.124;2024-03-23T01:28:48;18.30;;;11.90;;
77524;SDS011;66638;50.050;21.124;2024-03-23T01:34:22;18.60;;;12.40;;
77524;SDS011;66638;50.050;21.124;2024-03-23T01:37:11;18.60;;;12.30;;
77524;SDS011;66638;50.050;21.124;2024-03-23T01:42:54;20.50;;;12.00;;
77524;SDS011;66638;50.050;21.124;2024-03-23T01:45:45;19.70;;;11.50;;
77524;SDS011;66638;50.050;21.124;2024-03-23T01:51:19;21.20;;;12.60;;
77524;SDS011;66638;50.050;21.124;2024-03-23T01:56:53;15.40;;;9.80;;
77524;SDS011;66638;50.050;21.124;2024-03-23T01:59:41;17.10;;;11.00;;
77524;SDS011;66638;50.050;21.124;2024-03-23T02:02:29;17.20;;;10.10;;
77524;SDS011;66638;50.050;21.124;2024-03-23T02:05:17;17.60;;;11.20;;
77524;SDS011;66638;50.050;21.124;2024-03-23T02:10:51;13.50;;;8.90;;
77524;SDS011;66638;50.050;21.124;2024-03-23T02:13:38;13.60;;;9.80;;
77524;SDS011;66638;50.050;21.124;2024-03-23T02:16:26;15.70;;;9.10;;
77524;SDS011;66638;50.050;21.124;2024-03-23T02:19:13;13.00;;;8.40;;
77524;SDS011;66638;50.050;21.124;2024-03-23T02:22:00;13.70;;;8.40;;
77524;SDS011;66638;50.050;21.124;2024-03-23T02:24:47;15.80;;;10.30;;
77524;SDS011;66638;50.050;21.124;2024-03-23T02:30:23;14.20;;;8.60;;
77524;SDS011;66638;50.050;21.124;2024-03-23T02:33:10;15.00;;;9.50;;
77524;SDS011;66638;50.050;21.124;2024-03-23T02:35:57;13.90;;;9.40;;
77524;SDS011;66638;50.050;21.124;2024-03-23T02:38:44;13.80;;;9.70;;
77524;SDS011;66638;50.050;21.124;2024-03-23T02:41:31;13.90;;;9.30;;
77524;SDS011;66638;50.050;21.124;2024-03-23T02:44:18;13.80;;;8.50;;
77524;SDS011;66638;50.050;21.124;2024-03-23T02:49:52;14.30;;;8.50;;
77524;SDS011;66638;50.050;21.124;2024-03-23T02:52:40;13.90;;;8.90;;
77524;SDS011;66638;50.050;21.124;2024-03-23T02:58:14;13.30;;;8.50;;
77524;SDS011;66638;50.050;21.124;2024-03-23T03:01:01;13.50;;;8.80;;
77524;SDS011;66638;50.050;21.124;2024-03-23T03:03:48;16.00;;;9.90;;
77524;SDS011;66638;50.050;21.124;2024-03-23T03:06:35;15.40;;;9.60;;
77524;SDS011;66638;50.050;21.124;2024-03-23T03:12:10;11.80;;;8.00;;
77524;SDS011;66638;50.050;21.124;2024-03-23T03:14:57;12.40;;;8.60;;
77524;SDS011;66638;50.050;21.124;2024-03-23T03:17:44;13.00;;;9.10;;
77524;SDS011;66638;50.050;21.124;2024-03-23T03:20:31;12.30;;;8.10;;
77524;SDS011;66638;50.050;21.124;2024-03-23T03:23:18;13.60;;;8.70;;
77524;SDS011;66638;50.050;21.124;2024-03-23T03:26:06;14.60;;;9.60;;
77524;SDS011;66638;50.050;21.124;2024-03-23T03:31:40;13.70;;;8.20;;
77524;SDS011;66638;50.050;21.124;2024-03-23T03:34:27;11.90;;;8.00;;
77524;SDS011;66638;50.050;21.124;2024-03-23T03:37:13;13.50;;;9.40;;
77524;SDS011;66638;50.050;21.124;2024-03-23T03:42:47;13.20;;;8.60;;
77524;SDS011;66638;50.050;21.124;2024-03-23T03:45:36;11.80;;;8.30;;
77524;SDS011;66638;50.050;21.124;2024-03-23T03:51:10;14.00;;;8.60;;
77524;SDS011;66638;50.050;21.124;2024-03-23T03:53:57;13.60;;;9.10;;
77524;SDS011;66638;50.050;21.124;2024-03-23T03:56:44;13.10;;;9.20;;
77524;SDS011;66638;50.050;21.124;2024-03-23T03:59:31;11.80;;;8.00;;
77524;SDS011;66638;50.050;21.124;2024-03-23T04:05:05;11.70;;;8.40;;
77524;SDS011;66638;50.050;21.124;2024-03-23T04:07:53;14.20;;;8.80;;
77524;SDS011;66638;50.050;21.124;2024-03-23T04:10:40;12.50;;;8.40;;
77524;SDS011;66638;50.050;21.124;2024-03-23T04:13:28;14.90;;;9.10;;
77524;SDS011;66638;50.050;21.124;2024-03-23T04:19:22;12.20;;;9.20;;
77524;SDS011;66638;50.050;21.124;2024-03-23T04:24:56;14.80;;;8.80;;
77524;SDS011;66638;50.050;21.124;2024-03-23T04:27:44;14.20;;;8.90;;
77524;SDS011;66638;50.050;21.124;2024-03-23T04:30:31;13.60;;;9.90;;
77524;SDS011;66638;50.050;21.124;2024-03-23T04:33:18;14.10;;;10.00;;
77524;SDS011;66638;50.050;21.124;2024-03-23T04:36:05;12.70;;;8.90;;
77524;SDS011;66638;50.050;21.124;2024-03-23T04:38:53;15.40;;;9.90;;
77524;SDS011;66638;50.050;21.124;2024-03-23T04:41:40;14.30;;;8.70;;
77524;SDS011;66638;50.050;21.124;2024-03-23T04:44:27;12.50;;;8.30;;
77524;SDS011;66638;50.050;21.124;2024-03-23T04:47:14;13.60;;;9.40;;
77524;SDS011;66638;50.050;21.124;2024-03-23T04:50:02;15.80;;;10.60;;
77524;SDS011;66638;50.050;21.124;2024-03-23T04:52:50;14.90;;;9.20;;
77524;SDS011;66638;50.050;21.124;2024-03-23T04:55:37;14.50;;;10.20;;
77524;SDS011;66638;50.050;21.124;2024-03-23T04:58:24;12.90;;;9.40;;
77524;SDS011;66638;50.050;21.124;2024-03-23T05:01:12;15.90;;;9.70;;
77524;SDS011;66638;50.050;21.124;2024-03-23T05:06:46;15.00;;;8.90;;
77524;SDS011;66638;50.050;21.124;2024-03-23T05:09:33;18.80;;;10.10;;
77524;SDS011;66638;50.050;21.124;2024-03-23T05:15:07;15.70;;;10.60;;
77524;SDS011;66638;50.050;21.124;2024-03-23T05:17:54;17.10;;;12.30;;
77524;SDS011;66638;50.050;21.124;2024-03-23T05:20:42;13.30;;;9.70;;
77524;SDS011;66638;50.050;21.124;2024-03-23T05:23:30;12.90;;;9.30;;
77524;SDS011;66638;50.050;21.124;2024-03-23T05:26:17;14.00;;;10.30;;
77524;SDS011;66638;50.050;21.124;2024-03-23T05:29:04;14.60;;;10.80;;
77524;SDS011;66638;50.050;21.124;2024-03-23T05:31:53;16.20;;;10.20;;
77524;SDS011;66638;50.050;21.124;2024-03-23T05:34:44;14.80;;;9.30;;
77524;SDS011;66638;50.050;21.124;2024-03-23T05:37:31;14.30;;;9.70;;
77524;SDS011;66638;50.050;21.124;2024-03-23T05:40:20;13.30;;;9.50;;
77524;SDS011;66638;50.050;21.124;2024-03-23T05:43:07;16.30;;;9.30;;
77524;SDS011;66638;50.050;21.124;2024-03-23T05:45:56;15.10;;;10.00;;
77524;SDS011;66638;50.050;21.124;2024-03-23T05:48:44;13.50;;;8.90;;
77524;SDS011;66638;50.050;21.124;2024-03-23T05:54:18;14.00;;;9.60;;
77524;SDS011;66638;50.050;21.124;2024-03-23T05:59:55;13.50;;;9.00;;
77524;SDS011;66638;50.050;21.124;2024-03-23T06:05:32;12.60;;;9.10;;
77524;SDS011;66638;50.050;21.124;2024-03-23T06:08:20;15.20;;;9.20;;
77524;SDS011;66638;50.050;21.124;2024-03-23T06:13:54;18.70;;;11.50;;
77524;SDS011;66638;50.050;21.124;2024-03-23T06:16:43;23.80;;;13.70;;
77524;SDS011;66638;50.050;21.124;2024-03-23T06:19:30;25.30;;;12.80;;
77524;SDS011;66638;50.050;21.124;2024-03-23T06:22:17;22.20;;;12.60;;
77524;SDS011;66638;50.050;21.124;2024-03-23T06:25:04;18.30;;;10.60;;
77524;SDS011;66638;50.050;21.124;2024-03-23T06:27:52;18.80;;;11.80;;
77524;SDS011;66638;50.050;21.124;2024-03-23T06:30:39;17.30;;;10.80;;
77524;SDS011;66638;50.050;21.124;2024-03-23T06:33:26;15.00;;;9.30;;
77524;SDS011;66638;50.050;21.124;2024-03-23T06:36:13;15.40;;;10.10;;
77524;SDS011;66638;50.050;21.124;2024-03-23T06:41:53;14.70;;;9.60;;
77524;SDS011;66638;50.050;21.124;2024-03-23T06:44:41;16.70;;;11.30;;
77524;SDS011;66638;50.050;21.124;2024-03-23T06:47:28;16.80;;;10.80;;
77524;SDS011;66638;50.050;21.124;2024-03-23T06:50:15;18.10;;;11.20;;
77524;SDS011;66638;50.050;21.124;2024-03-23T06:53:03;18.50;;;10.90;;
77524;SDS011;66638;50.050;21.124;2024-03-23T06:55:52;19.50;;;11.90;;
77524;SDS011;66638;50.050;21.124;2024-03-23T06:58:40;15.90;;;10.70;;
77524;SDS011;66638;50.050;21.124;2024-03-23T07:01:27;14.40;;;10.00;;
77524;SDS011;66638;50.050;21.124;2024-03-23T07:04:15;16.70;;;10.60;;
77524;SDS011;66638;50.050;21.124;2024-03-23T07:07:03;15.00;;;9.90;;
77524;SDS011;66638;50.050;21.124;2024-03-23T07:09:49;16.50;;;10.70;;
77524;SDS011;66638;50.050;21.124;2024-03-23T07:12:37;18.50;;;11.60;;
77524;SDS011;66638;50.050;21.124;2024-03-23T07:15:24;17.00;;;10.40;;
77524;SDS011;66638;50.050;21.124;2024-03-23T07:18:11;17.50;;;11.20;;
77524;SDS011;66638;50.050;21.124;2024-03-23T07:20:58;15.90;;;11.30;;
77524;SDS011;66638;50.050;21.124;2024-03-23T07:23:45;16.50;;;11.10;;
77524;SDS011;66638;50.050;21.124;2024-03-23T07:26:33;16.40;;;10.40;;
77524;SDS011;66638;50.050;21.124;2024-03-23T07:29:20;13.90;;;9.60;;
77524;SDS011;66638;50.050;21.124;2024-03-23T07:32:07;16.00;;;10.30;;
77524;SDS011;66638;50.050;21.124;2024-03-23T07:34:54;13.60;;;9.40;;
77524;SDS011;66638;50.050;21.124;2024-03-23T07:37:41;12.60;;;9.70;;
77524;SDS011;66638;50.050;21.124;2024-03-23T07:40:29;14.30;;;10.20;;
77524;SDS011;66638;50.050;21.124;2024-03-23T07:43:16;14.80;;;9.90;;
77524;SDS011;66638;50.050;21.124;2024-03-23T07:46:03;12.30;;;8.50;;
77524;SDS011;66638;50.050;21.124;2024-03-23T07:48:51;12.30;;;8.40;;
77524;SDS011;66638;50.050;21.124;2024-03-23T07:51:39;15.30;;;9.80;;
77524;SDS011;66638;50.050;21.124;2024-03-23T07:54:27;12.00;;;9.20;;
77524;SDS011;66638;50.050;21.124;2024-03-23T07:57:15;14.80;;;9.00;;
77524;SDS011;66638;50.050;21.124;2024-03-23T08:00:02;12.10;;;8.80;;
77524;SDS011;66638;50.050;21.124;2024-03-23T08:02:51;11.80;;;8.00;;
77524;SDS011;66638;50.050;21.124;2024-03-23T08:05:38;13.50;;;8.60;;
77524;SDS011;66638;50.050;21.124;2024-03-23T08:08:25;12.40;;;8.60;;
77524;SDS011;66638;50.050;21.124;2024-03-23T08:11:13;12.30;;;7.50;;
77524;SDS011;66638;50.050;21.124;2024-03-23T08:14:07;12.10;;;8.50;;
77524;SDS011;66638;50.050;21.124;2024-03-23T08:16:55;11.40;;;8.40;;
77524;SDS011;66638;50.050;21.124;2024-03-23T08:19:42;12.20;;;7.70;;
77524;SDS011;66638;50.050;21.124;2024-03-23T08:22:29;12.30;;;8.20;;
77524;SDS011;66638;50.050;21.124;2024-03-23T08:25:16;14.70;;;8.90;;
77524;SDS011;66638;50.050;21.124;2024-03-23T08:28:03;11.00;;;8.30;;
77524;SDS011;66638;50.050;21.124;2024-03-23T08:30:52;13.30;;;8.30;;
77524;SDS011;66638;50.050;21.124;2024-03-23T08:33:39;9.50;;;7.30;;
77524;SDS011;66638;50.050;21.124;2024-03-23T08:36:27;14.80;;;10.00;;
77524;SDS011;66638;50.050;21.124;2024-03-23T08:39:14;10.50;;;7.50;;
77524;SDS011;66638;50.050;21.124;2024-03-23T08:42:01;13.10;;;8.40;;
77524;SDS011;66638;50.050;21.124;2024-03-23T08:44:48;13.80;;;8.80;;
77524;SDS011;66638;50.050;21.124;2024-03-23T08:47:36;14.60;;;9.50;;
77524;SDS011;66638;50.050;21.124;2024-03-23T08:50:23;10.90;;;7.60;;
77524;SDS011;66638;50.050;21.124;2024-03-23T08:53:10;11.60;;;7.90;;
77524;SDS011;66638;50.050;21.124;2024-03-23T08:55:57;10.60;;;7.50;;
77524;SDS011;66638;50.050;21.124;2024-03-23T08:58:45;10.60;;;7.20;;
77524;SDS011;66638;50.050;21.124;2024-03-23T09:01:32;12.80;;;7.70;;
77524;SDS011;66638;50.050;21.124;2024-03-23T09:04:19;11.10;;;8.10;;
77524;SDS011;66638;50.050;21.124;2024-03-23T09:07:07;10.30;;;7.70;;
77524;SDS011;66638;50.050;21.124;2024-03-23T09:09:55;11.60;;;7.50;;
77524;SDS011;66638;50.050;21.124;2024-03-23T09:12:42;11.00;;;8.00;;
77524;SDS011;66638;50.050;21.124;2024-03-23T09:15:29;10.70;;;7.50;;
77524;SDS011;66638;50.050;21.124;2024-03-23T09:18:16;13.20;;;8.10;;
77524;SDS011;66638;50.050;21.124;2024-03-23T09:21:04;10.40;;;7.30;;
77524;SDS011;66638;50.050;21.124;2024-03-23T09:23:58;11.40;;;7.60;;
77524;SDS011;66638;50.050;21.124;2024-03-23T09:26:45;11.80;;;7.80;;
77524;SDS011;66638;50.050;21.124;2024-03-23T09:29:32;11.00;;;8.10;;
77524;SDS011;66638;50.050;21.124;2024-03-23T09:32:19;9.20;;;6.90;;
77524;SDS011;66638;50.050;21.124;2024-03-23T09:35:06;11.60;;;8.40;;
77524;SDS011;66638;50.050;21.124;2024-03-23T09:37:53;10.00;;;7.50;;
77524;SDS011;66638;50.050;21.124;2024-03-23T09:40:41;10.00;;;7.40;;
77524;SDS011;66638;50.050;21.124;2024-03-23T09:43:28;10.70;;;8.10;;
77524;SDS011;66638;50.050;21.124;2024-03-23T09:46:16;12.70;;;8.80;;
77524;SDS011;66638;50.050;21.124;2024-03-23T09:49:03;12.10;;;7.30;;
77524;SDS011;66638;50.050;21.124;2024-03-23T09:51:51;10.90;;;7.50;;
77524;SDS011;66638;50.050;21.124;2024-03-23T09:54:38;11.00;;;8.10;;
77524;SDS011;66638;50.050;21.124;2024-03-23T09:57:25;11.10;;;8.90;;
77524;SDS011;66638;50.050;21.124;2024-03-23T10:00:13;11.40;;;8.40;;
77524;SDS011;66638;50.050;21.124;2024-03-23T10:03:00;12.20;;;8.40;;
77524;SDS011;66638;50.050;21.124;2024-03-23T10:05:58;11.40;;;9.20;;
77524;SDS011;66638;50.050;21.124;2024-03-23T10:08:47;10.60;;;6.90;;
77524;SDS011;66638;50.050;21.124;2024-03-23T10:11:35;11.70;;;7.50;;
77524;SDS011;66638;50.050;21.124;2024-03-23T10:14:31;13.40;;;8.60;;
77524;SDS011;66638;50.050;21.124;2024-03-23T10:17:22;10.50;;;7.60;;
77524;SDS011;66638;50.050;21.124;2024-03-23T10:20:13;11.30;;;8.60;;
77524;SDS011;66638;50.050;21.124;2024-03-23T10:23:05;13.20;;;9.00;;
77524;SDS011;66638;50.050;21.124;2024-03-23T10:26:16;11.90;;;8.20;;
77524;SDS011;66638;50.050;21.124;2024-03-23T10:29:08;10.20;;;7.60;;
77524;SDS011;66638;50.050;21.124;2024-03-23T10:32:07;9.80;;;7.00;;
77524;SDS011;66638;50.050;21.124;2024-03-23T10:35:13;9.10;;;7.10;;
77524;SDS011;66638;50.050;21.124;2024-03-23T10:38:01;10.70;;;7.40;;
77524;SDS011;66638;50.050;21.124;2024-03-23T10:40:53;12.20;;;8.90;;
77524;SDS011;66638;50.050;21.124;2024-03-23T10:43:41;20.00;;;13.80;;
77524;SDS011;66638;50.050;21.124;2024-03-23T10:46:29;13.00;;;8.30;;
77524;SDS011;66638;50.050;21.124;2024-03-23T10:49:17;11.50;;;7.60;;
77524;SDS011;66638;50.050;21.124;2024-03-23T10:52:05;12.00;;;8.30;;
77524;SDS011;66638;50.050;21.124;2024-03-23T10:54:52;16.80;;;11.30;;
77524;SDS011;66638;50.050;21.124;2024-03-23T11:00:47;13.30;;;9.00;;
77524;SDS011;66638;50.050;21.124;2024-03-23T11:03:36;13.60;;;10.40;;
77524;SDS011;66638;50.050;21.124;2024-03-23T11:06:34;12.00;;;8.00;;
77524;SDS011;66638;50.050;21.124;2024-03-23T11:12:32;10.00;;;7.30;;
77524;SDS011;66638;50.050;21.124;2024-03-23T11:15:20;12.50;;;8.70;;
77524;SDS011;66638;50.050;21.124;2024-03-23T11:18:08;12.40;;;7.80;;
77524;SDS011;66638;50.050;21.124;2024-03-23T11:20:55;13.40;;;10.00;;
77524;SDS011;66638;50.050;21.124;2024-03-23T11:23:42;11.10;;;7.80;;
77524;SDS011;66638;50.050;21.124;2024-03-23T11:26:29;12.40;;;8.10;;
77524;SDS011;66638;50.050;21.124;2024-03-23T11:29:17;13.10;;;8.80;;
77524;SDS011;66638;50.050;21.124;2024-03-23T11:32:07;11.40;;;8.10;;
77524;SDS011;66638;50.050;21.124;2024-03-23T11:34:57;12.20;;;7.10;;
77524;SDS011;66638;50.050;21.124;2024-03-23T11:37:44;11.40;;;8.80;;
77524;SDS011;66638;50.050;21.124;2024-03-23T11:40:32;8.90;;;7.10;;
77524;SDS011;66638;50.050;21.124;2024-03-23T11:43:20;14.10;;;8.50;;
77524;SDS011;66638;50.050;21.124;2024-03-23T11:46:08;12.80;;;8.80;;
77524;SDS011;66638;50.050;21.124;2024-03-23T11:48:56;11.90;;;8.30;;
77524;SDS011;66638;50.050;21.124;2024-03-23T11:51:43;8.10;;;5.80;;
77524;SDS011;66638;50.050;21.124;2024-03-23T11:54:30;11.30;;;8.00;;
77524;SDS011;66638;50.050;21.124;2024-03-23T11:57:19;10.50;;;6.70;;
77524;SDS011;66638;50.050;21.124;2024-03-23T12:03:13;10.90;;;8.10;;
77524;SDS011;66638;50.050;21.124;2024-03-23T12:06:03;11.20;;;7.40;;
77524;SDS011;66638;50.050;21.124;2024-03-23T12:08:51;14.40;;;9.60;;
77524;SDS011;66638;50.050;21.124;2024-03-23T12:11:39;10.40;;;7.50;;
77524;SDS011;66638;50.050;21.124;2024-03-23T12:14:27;10.40;;;8.10;;
77524;SDS011;66638;50.050;21.124;2024-03-23T12:17:18;10.00;;;6.70;;
77524;SDS011;66638;50.050;21.124;2024-03-23T12:20:08;13.10;;;8.30;;
77524;SDS011;66638;50.050;21.124;2024-03-23T12:23:04;9.50;;;7.60;;
77524;SDS011;66638;50.050;21.124;2024-03-23T12:25:53;8.00;;;7.00;;
77524;SDS011;66638;50.050;21.124;2024-03-23T12:28:41;11.40;;;7.10;;
77524;SDS011;66638;50.050;21.124;2024-03-23T12:31:28;11.50;;;7.00;;
77524;SDS011;66638;50.050;21.124;2024-03-23T12:34:14;10.00;;;7.40;;
77524;SDS011;66638;50.050;21.124;2024-03-23T12:37:02;10.00;;;6.70;;
77524;SDS011;66638;50.050;21.124;2024-03-23T12:39:49;11.40;;;7.60;;
77524;SDS011;66638;50.050;21.124;2024-03-23T12:42:36;11.70;;;8.20;;
77524;SDS011;66638;50.050;21.124;2024-03-23T12:45:24;11.50;;;8.00;;
77524;SDS011;66638;50.050;21.124;2024-03-23T12:48:11;13.10;;;9.20;;
77524;SDS011;66638;50.050;21.124;2024-03-23T12:50:58;15.20;;;8.30;;
77524;SDS011;66638;50.050;21.124;2024-03-23T12:53:45;11.60;;;7.60;;
77524;SDS011;66638;50.050;21.124;2024-03-23T12:56:33;12.40;;;7.80;;
77524;SDS011;66638;50.050;21.124;2024-03-23T12:59:20;11.70;;;7.30;;
77524;SDS011;66638;50.050;21.124;2024-03-23T13:02:09;10.10;;;7.00;;
77524;SDS011;66638;50.050;21.124;2024-03-23T13:04:57;9.70;;;7.60;;
77524;SDS011;66638;50.050;21.124;2024-03-23T13:07:45;11.70;;;7.30;;
77524;SDS011;66638;50.050;21.124;2024-03-23T13:10:32;12.10;;;7.60;;
77524;SDS011;66638;50.050;21.124;2024-03-23T13:13:19;10.60;;;6.90;;
77524;SDS011;66638;50.050;21.124;2024-03-23T13:16:06;9.20;;;6.50;;
77524;SDS011;66638;50.050;21.124;2024-03-23T13:18:54;10.60;;;7.00;;
77524;SDS011;66638;50.050;21.124;2024-03-23T13:21:41;8.50;;;6.70;;
77524;SDS011;66638;50.050;21.124;2024-03-23T13:24:28;10.50;;;6.40;;
77524;SDS011;66638;50.050;21.124;2024-03-23T13:27:15;12.60;;;6.60;;
77524;SDS011;66638;50.050;21.124;2024-03-23T13:30:02;10.50;;;6.50;;
77524;SDS011;66638;50.050;21.124;2024-03-23T13:32:50;9.40;;;5.80;;
77524;SDS011;66638;50.050;21.124;2024-03-23T13:35:38;10.60;;;7.40;;
77524;SDS011;66638;50.050;21.124;2024-03-23T13:38:25;9.10;;;6.40;;
77524;SDS011;66638;50.050;21.124;2024-03-23T13:41:12;10.20;;;6.50;;
77524;SDS011;66638;50.050;21.124;2024-03-23T13:43:59;9.60;;;7.40;;
77524;SDS011;66638;50.050;21.124;2024-03-23T13:46:46;11.10;;;8.20;;
77524;SDS011;66638;50.050;21.124;2024-03-23T13:49:33;8.40;;;5.80;;
77524;SDS011;66638;50.050;21.124;2024-03-23T13:52:21;9.60;;;6.30;;
77524;SDS011;66638;50.050;21.124;2024-03-23T13:55:12;12.70;;;8.40;;
77524;SDS011;66638;50.050;21.124;2024-03-23T13:58:02;9.30;;;6.40;;
77524;SDS011;66638;50.050;21.124;2024-03-23T14:00:49;10.50;;;7.00;;
77524;SDS011;66638;50.050;21.124;2024-03-23T14:03:36;10.10;;;6.80;;
77524;SDS011;66638;50.050;21.124;2024-03-23T14:06:23;10.90;;;8.00;;
77524;SDS011;66638;50.050;21.124;2024-03-23T14:09:10;10.70;;;7.30;;
77524;SDS011;66638;50.050;21.124;2024-03-23T14:12:02;12.00;;;7.10;;
77524;SDS011;66638;50.050;21.124;2024-03-23T14:14:50;17.10;;;9.80;;
77524;SDS011;66638;50.050;21.124;2024-03-23T14:17:39;13.60;;;8.10;;
77524;SDS011;66638;50.050;21.124;2024-03-23T14:20:26;12.70;;;8.50;;
77524;SDS011;66638;50.050;21.124;2024-03-23T14:23:13;12.10;;;8.80;;
77524;SDS011;66638;50.050;21.124;2024-03-23T14:26:00;12.80;;;9.10;;
77524;SDS011;66638;50.050;21.124;2024-03-23T14:28:48;12.00;;;8.10;;
77524;SDS011;66638;50.050;21.124;2024-03-23T14:31:37;15.50;;;10.80;;
77524;SDS011;66638;50.050;21.124;2024-03-23T14:34:25;13.70;;;9.10;;
77524;SDS011;66638;50.050;21.124;2024-03-23T14:37:15;13.90;;;10.00;;
77524;SDS011;66638;50.050;21.124;2024-03-23T14:40:02;13.20;;;8.50;;
77524;SDS011;66638;50.050;21.124;2024-03-23T14:42:49;13.60;;;8.30;;
77524;SDS011;66638;50.050;21.124;2024-03-23T14:45:36;12.30;;;7.40;;
77524;SDS011;66638;50.050;21.124;2024-03-23T14:48:24;12.40;;;8.10;;
77524;SDS011;66638;50.050;21.124;2024-03-23T14:51:12;9.20;;;6.10;;
77524;SDS011;66638;50.050;21.124;2024-03-23T14:54:00;11.40;;;6.90;;
77524;SDS011;66638;50.050;21.124;2024-03-23T14:56:48;12.50;;;9.00;;
77524;SDS011;66638;50.050;21.124;2024-03-23T14:59:35;9.60;;;7.40;;
77524;SDS011;66638;50.050;21.124;2024-03-23T15:02:24;16.60;;;10.10;;
77524;SDS011;66638;50.050;21.124;2024-03-23T15:05:13;12.90;;;9.00;;
77524;SDS011;66638;50.050;21.124;2024-03-23T15:08:01;11.40;;;7.80;;
77524;SDS011;66638;50.050;21.124;2024-03-23T15:10:50;10.00;;;6.70;;
77524;SDS011;66638;50.050;21.124;2024-03-23T15:13:38;9.90;;;6.80;;
77524;SDS011;66638;50.050;21.124;2024-03-23T15:16:25;13.20;;;7.80;;
77524;SDS011;66638;50.050;21.124;2024-03-23T15:19:13;8.40;;;5.40;;
77524;SDS011;66638;50.050;21.124;2024-03-23T15:22:01;10.10;;;7.90;;
77524;SDS011;66638;50.050;21.124;2024-03-23T15:24:49;9.10;;;6.80;;
77524;SDS011;66638;50.050;21.124;2024-03-23T15:27:36;9.60;;;6.50;;
77524;SDS011;66638;50.050;21.124;2024-03-23T15:30:23;9.30;;;6.30;;
77524;SDS011;66638;50.050;21.124;2024-03-23T15:33:10;8.10;;;5.70;;
77524;SDS011;66638;50.050;21.124;2024-03-23T15:35:59;11.60;;;7.70;;
77524;SDS011;66638;50.050;21.124;2024-03-23T15:38:46;11.10;;;6.10;;
77524;SDS011;66638;50.050;21.124;2024-03-23T15:41:35;9.50;;;7.20;;
77524;SDS011;66638;50.050;21.124;2024-03-23T15:44:23;9.50;;;6.60;;
77524;SDS011;66638;50.050;21.124;2024-03-23T15:47:11;9.50;;;6.10;;
77524;SDS011;66638;50.050;21.124;2024-03-23T15:49:58;7.40;;;5.60;;
77524;SDS011;66638;50.050;21.124;2024-03-23T15:52:45;9.00;;;6.30;;
77524;SDS011;66638;50.050;21.124;2024-03-23T15:55:32;7.30;;;4.30;;
77524;SDS011;66638;50.050;21.124;2024-03-23T15:58:25;14.80;;;8.30;;
77524;SDS011;66638;50.050;21.124;2024-03-23T16:01:14;16.40;;;8.40;;
77524;SDS011;66638;50.050;21.124;2024-03-23T16:04:01;9.10;;;4.70;;
77524;SDS011;66638;50.050;21.124;2024-03-23T16:06:49;7.10;;;4.00;;
77524;SDS011;66638;50.050;21.124;2024-03-23T16:09:37;5.50;;;3.40;;
77524;SDS011;66638;50.050;21.124;2024-03-23T16:12:24;4.50;;;2.70;;
77524;SDS011;66638;50.050;21.124;2024-03-23T16:15:12;5.10;;;2.70;;
77524;SDS011;66638;50.050;21.124;2024-03-23T16:18:00;5.30;;;2.90;;
77524;SDS011;66638;50.050;21.124;2024-03-23T16:20:55;4.60;;;2.90;;
77524;SDS011;66638;50.050;21.124;2024-03-23T16:24:05;6.40;;;3.20;;
77524;SDS011;66638;50.050;21.124;2024-03-23T16:26:55;5.90;;;3.30;;
77524;SDS011;66638;50.050;21.124;2024-03-23T16:32:29;12.80;;;5.60;;
77524;SDS011;66638;50.050;21.124;2024-03-23T16:35:18;8.90;;;4.20;;
77524;SDS011;66638;50.050;21.124;2024-03-23T16:38:05;8.90;;;4.00;;
77524;SDS011;66638;50.050;21.124;2024-03-23T16:43:40;10.10;;;4.40;;
77524;SDS011;66638;50.050;21.124;2024-03-23T16:46:30;6.30;;;3.70;;
77524;SDS011;66638;50.050;21.124;2024-03-23T16:49:22;5.80;;;2.90;;
77524;SDS011;66638;50.050;21.124;2024-03-23T16:52:09;5.50;;;3.00;;
77524;SDS011;66638;50.050;21.124;2024-03-23T16:54:56;3.70;;;2.10;;
77524;SDS011;66638;50.050;21.124;2024-03-23T16:57:46;6.50;;;3.00;;
77524;SDS011;66638;50.050;21.124;2024-03-23T17:00:34;7.90;;;4.00;;
77524;SDS011;66638;50.050;21.124;2024-03-23T17:03:23;10.60;;;6.10;;
77524;SDS011;66638;50.050;21.124;2024-03-23T17:06:11;11.20;;;5.20;;
77524;SDS011;66638;50.050;21.124;2024-03-23T17:09:01;6.10;;;3.10;;
77524;SDS011;66638;50.050;21.124;2024-03-23T17:11:49;7.30;;;3.80;;
77524;SDS011;66638;50.050;21.124;2024-03-23T17:14:45;5.10;;;3.30;;
77524;SDS011;66638;50.050;21.124;2024-03-23T17:17:33;3.80;;;2.90;;
77524;SDS011;66638;50.050;21.124;2024-03-23T17:20:21;9.10;;;5.80;;
77524;SDS011;66638;50.050;21.124;2024-03-23T17:23:09;8.30;;;4.80;;
77524;SDS011;66638;50.050;21.124;2024-03-23T17:25:59;8.60;;;4.30;;
77524;SDS011;66638;50.050;21.124;2024-03-23T17:28:47;7.10;;;4.10;;
77524;SDS011;66638;50.050;21.124;2024-03-23T17:31:34;7.90;;;3.60;;
77524;SDS011;66638;50.050;21.124;2024-03-23T17:34:24;4.70;;;3.00;;
77524;SDS011;66638;50.050;21.124;2024-03-23T17:37:12;5.10;;;2.80;;
77524;SDS011;66638;50.050;21.124;2024-03-23T17:39:59;4.40;;;2.50;;
77524;SDS011;66638;50.050;21.124;2024-03-23T17:42:46;6.50;;;3.80;;
77524;SDS011;66638;50.050;21.124;2024-03-23T17:45:34;4.80;;;3.10;;
77524;SDS011;66638;50.050;21.124;2024-03-23T17:51:08;5.20;;;2.50;;
77524;SDS011;66638;50.050;21.124;2024-03-23T17:53:55;7.90;;;3.70;;
77524;SDS011;66638;50.050;21.124;2024-03-23T17:56:42;7.60;;;4.10;;
77524;SDS011;66638;50.050;21.124;2024-03-23T17:59:29;7.10;;;3.90;;
77524;SDS011;66638;50.050;21.124;2024-03-23T18:02:17;6.80;;;4.10;;
77524;SDS011;66638;50.050;21.124;2024-03-23T18:05:06;15.40;;;7.30;;
77524;SDS011;66638;50.050;21.124;2024-03-23T18:07:53;20.10;;;11.40;;
77524;SDS011;66638;50.050;21.124;2024-03-23T18:10:40;32.90;;;18.90;;
77524;SDS011;66638;50.050;21.124;2024-03-23T18:13:28;25.60;;;15.10;;
77524;SDS011;66638;50.050;21.124;2024-03-23T18:16:15;17.40;;;7.70;;
77524;SDS011;66638;50.050;21.124;2024-03-23T18:19:02;15.30;;;6.20;;
77524;SDS011;66638;50.050;21.124;2024-03-23T18:24:39;8.00;;;5.20;;
77524;SDS011;66638;50.050;21.124;2024-03-23T18:30:13;7.90;;;4.70;;
77524;SDS011;66638;50.050;21.124;2024-03-23T18:33:02;7.20;;;3.80;;
77524;SDS011;66638;50.050;21.124;2024-03-23T18:35:50;4.90;;;3.60;;
77524;SDS011;66638;50.050;21.124;2024-03-23T18:38:40;4.80;;;3.00;;
77524;SDS011;66638;50.050;21.124;2024-03-23T18:41:28;7.30;;;3.80;;
77524;SDS011;66638;50.050;21.124;2024-03-23T18:44:16;7.80;;;5.00;;
77524;SDS011;66638;50.050;21.124;2024-03-23T18:47:04;8.70;;;4.80;;